Time;durP1;ratioP1;P1;durP2;ratioP2;P2;SDS_P1;SDS_P2;PMS_P1;PMS_P2;Temp;Humidity;BMP_temperature;BMP_pressure;BME280_temperature;BME280_humidity;BME280_pressure;Samples;Min_cycle;Max_cycle;Signal;HPM_P1;HPM_P2
2023/08/10 00:02:05;;;;;;;7.90;3.70;;;18.10;96.10;;;;;;5052978;28;20941;-68
2023/08/10 00:04:33;;;;;;;4.43;3.60;;;18.00;96.00;;;;;;5053317;28;20473;-68
2023/08/10 00:07:01;;;;;;;6.07;4.63;;;18.00;96.20;;;;;;5053540;28;20493;-68
2023/08/10 00:09:29;;;;;;;5.63;3.57;;;18.00;96.30;;;;;;5053498;28;20429;-70
2023/08/10 00:11:56;;;;;;;8.77;3.73;;;18.00;96.30;;;;;;5053034;28;20432;-68
2023/08/10 00:14:23;;;;;;;5.13;3.50;;;18.00;96.50;;;;;;5053207;28;20811;-69
2023/08/10 00:16:52;;;;;;;5.20;3.40;;;18.00;96.60;;;;;;5053337;28;20448;-68
2023/08/10 00:19:19;;;;;;;6.20;3.80;;;18.00;96.70;;;;;;5052942;28;20438;-68
2023/08/10 00:21:46;;;;;;;5.90;3.60;;;18.00;96.80;;;;;;5053288;28;20438;-69
2023/08/10 00:24:14;;;;;;;5.80;3.43;;;17.90;96.80;;;;;;5052457;28;20527;-68
2023/08/10 00:26:43;;;;;;;4.73;3.83;;;17.90;96.80;;;;;;5052917;28;20437;-68
2023/08/10 00:29:10;;;;;;;5.00;3.90;;;17.80;97.00;;;;;;5052821;28;20491;-68
2023/08/10 00:31:37;;;;;;;5.13;4.20;;;17.70;97.50;;;;;;5052884;28;20445;-68
2023/08/10 00:34:04;;;;;;;7.23;4.73;;;17.70;97.60;;;;;;5052688;28;20445;-68
2023/08/10 00:36:31;;;;;;;6.83;3.90;;;17.70;97.60;;;;;;5052801;28;20441;-68
2023/08/10 00:38:59;;;;;;;7.07;3.60;;;17.70;97.80;;;;;;5052758;28;20430;-68
2023/08/10 00:41:26;;;;;;;5.50;4.20;;;17.60;98.00;;;;;;5052545;28;20488;-69
2023/08/10 00:43:54;;;;;;;5.43;3.97;;;17.60;97.90;;;;;;5045638;28;21061;-68
2023/08/10 00:46:22;;;;;;;7.97;4.63;;;17.70;98.10;;;;;;5056573;28;20550;-68
2023/08/10 00:48:49;;;;;;;6.33;4.20;;;17.70;97.90;;;;;;5057108;28;20444;-68
2023/08/10 00:51:16;;;;;;;6.43;4.43;;;17.70;98.00;;;;;;5057078;28;20491;-68
2023/08/10 00:53:44;;;;;;;5.80;4.43;;;17.70;98.00;;;;;;5056814;28;20442;-68
2023/08/10 00:56:12;;;;;;;9.57;4.40;;;17.70;98.10;;;;;;5056583;28;20452;-68
2023/08/10 00:58:41;;;;;;;5.10;4.13;;;17.70;98.10;;;;;;5056776;28;20520;-68
2023/08/10 01:01:10;;;;;;;5.00;4.17;;;17.70;98.20;;;;;;5057162;28;20436;-71
2023/08/10 01:03:37;;;;;;;6.97;4.67;;;17.70;98.20;;;;;;5055923;28;20429;-68
2023/08/10 01:06:17;;;;;;;8.83;4.43;;;17.70;98.30;;;;;;5056134;28;20444;-68
2023/08/10 01:09:02;;;;;;;7.20;4.60;;;17.60;98.30;;;;;;5056596;28;20429;-68
2023/08/10 01:11:37;;;;;;;7.50;5.10;;;17.70;98.50;;;;;;5056148;28;20469;-68
2023/08/10 01:14:11;;;;;;;6.00;3.20;;;17.70;98.60;;;;;;5056402;28;20436;-68
2023/08/10 01:16:42;;;;;;;7.93;4.87;;;17.70;98.70;;;;;;5056783;28;20420;-68
2023/08/10 01:19:26;;;;;;;8.20;3.80;;;17.70;98.70;;;;;;5056821;28;20429;-74
2023/08/10 01:22:02;;;;;;;6.67;4.30;;;17.70;98.70;;;;;;5056175;28;20440;-68
2023/08/10 01:24:34;;;;;;;6.23;4.00;;;17.70;98.60;;;;;;5055678;28;21198;-68
2023/08/10 01:27:04;;;;;;;8.93;5.30;;;17.70;98.60;;;;;;5056207;28;20908;-68
2023/08/10 01:29:31;;;;;;;6.40;4.70;;;17.60;98.60;;;;;;5056107;28;20438;-68
2023/08/10 01:31:58;;;;;;;7.50;4.43;;;17.60;99.10;;;;;;5056419;28;20437;-69
2023/08/10 01:34:25;;;;;;;5.90;4.10;;;17.60;99.00;;;;;;5055924;28;20539;-68
2023/08/10 01:36:53;;;;;;;6.13;4.60;;;17.60;99.10;;;;;;5055924;28;20434;-68
2023/08/10 01:39:20;;;;;;;6.80;4.83;;;17.50;99.20;;;;;;5056014;28;20522;-68
2023/08/10 01:41:47;;;;;;;7.53;4.77;;;17.50;99.30;;;;;;5056191;28;20444;-68
2023/08/10 01:44:16;;;;;;;6.20;4.27;;;17.50;99.40;;;;;;5055604;28;20468;-68
2023/08/10 01:46:47;;;;;;;7.33;4.63;;;17.50;99.50;;;;;;5055691;28;20434;-68
2023/08/10 01:49:15;;;;;;;8.10;4.20;;;17.60;99.70;;;;;;5055702;28;20453;-68
2023/08/10 01:51:44;;;;;;;5.57;3.80;;;17.60;99.70;;;;;;5055772;28;20438;-68
2023/08/10 01:54:12;;;;;;;5.60;4.37;;;17.60;99.70;;;;;;5055074;28;20514;-68
2023/08/10 01:56:39;;;;;;;6.70;4.10;;;17.60;99.80;;;;;;5054636;28;20464;-68
2023/08/10 01:59:07;;;;;;;5.40;4.30;;;17.60;99.90;;;;;;5053027;28;20966;-68
2023/08/10 02:01:36;;;;;;;5.23;4.30;;;17.60;99.80;;;;;;5055826;28;20798;-68
2023/08/10 02:04:03;;;;;;;4.73;3.87;;;17.60;99.90;;;;;;5054988;28;20477;-68
2023/08/10 02:06:37;;;;;;;5.30;4.00;;;17.60;99.90;;;;;;5055103;28;20529;-68
2023/08/10 02:09:05;;;;;;;5.77;3.90;;;17.60;99.90;;;;;;5055270;28;20426;-68
2023/08/10 02:11:32;;;;;;;7.80;4.30;;;17.60;99.90;;;;;;5055988;28;20472;-68
2023/08/10 02:14:00;;;;;;;5.93;4.47;;;17.60;99.90;;;;;;5054875;28;20454;-68
2023/08/10 02:16:27;;;;;;;5.23;3.70;;;17.60;99.90;;;;;;5055451;28;20438;-68
2023/08/10 02:18:56;;;;;;;7.50;4.43;;;17.60;99.90;;;;;;5055423;28;20465;-68
2023/08/10 02:21:24;;;;;;;6.90;4.50;;;17.60;99.90;;;;;;5055480;28;20444;-68
2023/08/10 02:23:51;;;;;;;9.20;4.80;;;17.60;99.90;;;;;;5054832;28;20437;-68
2023/08/10 02:26:18;;;;;;;6.23;4.23;;;17.60;99.90;;;;;;5055006;28;20458;-68
2023/08/10 02:28:46;;;;;;;5.83;3.77;;;17.60;99.90;;;;;;5055036;28;20442;-68
2023/08/10 02:31:13;;;;;;;7.97;4.60;;;17.60;99.90;;;;;;5053884;28;20495;-68
2023/08/10 02:33:40;;;;;;;6.60;4.30;;;17.60;99.90;;;;;;5054529;28;20963;-68
2023/08/10 02:36:09;;;;;;;5.80;3.97;;;17.60;99.90;;;;;;5055106;28;20441;-68
2023/08/10 02:38:36;;;;;;;6.43;3.93;;;17.60;99.90;;;;;;5055022;28;20433;-69
2023/08/10 02:41:03;;;;;;;5.67;4.37;;;17.60;99.90;;;;;;5054780;28;20563;-68
2023/08/10 02:43:31;;;;;;;7.77;5.20;;;17.60;99.90;;;;;;5055024;28;20437;-68
2023/08/10 02:45:58;;;;;;;6.87;4.77;;;17.50;99.90;;;;;;5054789;28;20474;-68
2023/08/10 02:48:25;;;;;;;6.60;4.00;;;17.50;99.90;;;;;;5054917;28;20483;-68
2023/08/10 02:50:53;;;;;;;7.13;4.93;;;17.50;99.90;;;;;;5053917;28;20442;-68
2023/08/10 02:53:21;;;;;;;8.10;4.33;;;17.50;99.90;;;;;;5054849;28;20504;-68
2023/08/10 02:55:49;;;;;;;5.37;3.90;;;17.50;99.90;;;;;;5054700;28;20434;-68
2023/08/10 02:58:16;;;;;;;5.93;4.67;;;17.50;99.90;;;;;;5054732;28;20474;-68
2023/08/10 03:00:43;;;;;;;6.90;5.40;;;17.50;99.90;;;;;;5054051;28;20439;-67
2023/08/10 03:03:10;;;;;;;6.57;4.07;;;17.50;99.90;;;;;;5054304;28;20433;-68
2023/08/10 03:05:38;;;;;;;6.07;3.77;;;17.50;99.90;;;;;;5054572;28;20474;-68
2023/08/10 03:08:06;;;;;;;4.40;3.57;;;17.40;99.90;;;;;;5054386;28;20437;-68
2023/08/10 03:10:34;;;;;;;5.83;4.37;;;17.40;99.90;;;;;;5053629;28;20501;-69
2023/08/10 03:13:02;;;;;;;8.10;5.80;;;17.40;99.90;;;;;;5054108;28;20434;-68
2023/08/10 03:15:29;;;;;;;5.10;4.20;;;17.40;99.90;;;;;;5054250;28;20998;-68
2023/08/10 03:17:56;;;;;;;5.17;3.60;;;17.40;99.90;;;;;;5053996;28;20432;-68
2023/08/10 03:20:23;;;;;;;4.40;3.37;;;17.40;99.90;;;;;;5053802;28;20465;-68
2023/08/10 03:22:52;;;;;;;5.23;3.50;;;17.40;99.90;;;;;;5053732;28;20446;-69
2023/08/10 03:25:19;;;;;;;4.30;3.70;;;17.30;99.90;;;;;;5053677;28;20469;-68
2023/08/10 03:27:48;;;;;;;4.07;3.33;;;17.30;99.90;;;;;;5054233;28;20443;-68
2023/08/10 03:30:15;;;;;;;5.70;3.60;;;17.30;99.90;;;;;;5053866;28;20492;-68
2023/08/10 03:32:43;;;;;;;9.03;4.20;;;17.30;99.90;;;;;;5053711;28;20469;-68
2023/08/10 03:35:10;;;;;;;6.80;3.97;;;17.20;99.90;;;;;;5053695;28;20440;-68
2023/08/10 03:37:38;;;;;;;6.40;4.60;;;17.10;99.90;;;;;;5054051;28;20783;-68
2023/08/10 03:40:07;;;;;;;6.47;4.60;;;17.10;99.90;;;;;;5053903;28;20468;-68
2023/08/10 03:42:35;;;;;;;6.30;4.00;;;17.10;99.90;;;;;;5053636;28;20806;-68
2023/08/10 03:45:04;;;;;;;6.70;4.50;;;17.10;99.90;;;;;;5053574;28;20469;-68
2023/08/10 03:47:32;;;;;;;8.47;4.63;;;17.10;99.90;;;;;;5054117;28;20536;-68
2023/08/10 03:49:59;;;;;;;6.00;3.60;;;17.10;99.90;;;;;;5053822;28;20432;-67
2023/08/10 03:52:26;;;;;;;5.30;4.10;;;17.10;99.90;;;;;;5053422;28;20519;-67
2023/08/10 03:54:53;;;;;;;5.20;4.23;;;17.10;99.90;;;;;;5052651;28;20464;-68
2023/08/10 03:57:21;;;;;;;6.87;4.30;;;17.10;99.90;;;;;;5053664;28;20429;-68
2023/08/10 03:59:48;;;;;;;6.70;4.00;;;17.10;99.90;;;;;;5053667;28;20778;-68
2023/08/10 04:02:17;;;;;;;4.50;3.80;;;17.00;99.90;;;;;;5052883;28;20451;-68
2023/08/10 04:04:44;;;;;;;4.33;3.40;;;17.10;99.90;;;;;;5053738;28;20468;-68
2023/08/10 04:07:12;;;;;;;5.17;3.80;;;17.00;99.90;;;;;;5053247;28;20425;-68
2023/08/10 04:09:44;;;;;;;4.70;3.87;;;17.00;99.90;;;;;;5053245;28;20433;-68
2023/08/10 04:12:11;;;;;;;6.33;4.90;;;17.00;99.90;;;;;;5053064;28;20440;-67
2023/08/10 04:14:39;;;;;;;4.73;3.77;;;17.00;99.90;;;;;;5052742;28;20931;-68
2023/08/10 04:17:06;;;;;;;6.27;3.63;;;17.00;99.90;;;;;;5053287;28;20444;-68
2023/08/10 04:19:35;;;;;;;4.87;3.50;;;17.00;99.90;;;;;;5052280;28;20460;-68
2023/08/10 04:22:02;;;;;;;6.80;4.40;;;17.00;99.90;;;;;;5053065;28;20441;-68
2023/08/10 04:24:29;;;;;;;4.70;3.40;;;17.00;99.90;;;;;;5052834;28;20455;-67
2023/08/10 04:26:57;;;;;;;9.83;3.90;;;17.00;99.90;;;;;;5053272;28;20541;-68
2023/08/10 04:29:26;;;;;;;5.00;3.53;;;17.00;99.90;;;;;;5053309;28;20440;-68
2023/08/10 04:31:53;;;;;;;6.63;4.00;;;16.90;99.90;;;;;;5052834;28;20467;-68
2023/08/10 04:34:21;;;;;;;8.20;4.50;;;16.90;99.90;;;;;;5052529;28;20932;-68
2023/08/10 04:36:49;;;;;;;5.43;4.30;;;16.90;99.90;;;;;;5053113;28;20782;-68
2023/08/10 04:39:17;;;;;;;5.80;4.37;;;16.90;99.90;;;;;;5052784;28;20448;-68
2023/08/10 04:41:44;;;;;;;6.33;5.07;;;16.90;99.90;;;;;;5053150;28;20494;-68
2023/08/10 04:44:11;;;;;;;5.13;3.80;;;16.90;99.90;;;;;;5052602;28;20475;-67
2023/08/10 04:46:39;;;;;;;6.10;3.77;;;16.90;99.90;;;;;;5052494;28;20477;-68
2023/08/10 04:49:06;;;;;;;5.90;4.73;;;16.90;99.90;;;;;;5052792;28;20432;-68
2023/08/10 04:51:34;;;;;;;6.67;4.50;;;16.80;99.90;;;;;;5053006;28;20440;-68
2023/08/10 04:54:03;;;;;;;7.23;4.50;;;16.70;99.90;;;;;;5052699;28;20855;-68
2023/08/10 04:56:30;;;;;;;6.50;4.60;;;16.60;99.90;;;;;;5053296;28;20456;-67
2023/08/10 04:58:57;;;;;;;7.20;4.23;;;16.60;99.90;;;;;;5052634;28;20437;-68
2023/08/10 05:01:25;;;;;;;7.93;5.40;;;16.70;99.90;;;;;;5053036;28;20447;-68
2023/08/10 05:03:52;;;;;;;6.60;4.80;;;16.70;99.90;;;;;;5052191;28;20459;-68
2023/08/10 05:06:19;;;;;;;5.63;4.60;;;16.70;99.90;;;;;;5052846;28;20471;-68
2023/08/10 05:08:46;;;;;;;8.30;6.53;;;16.70;99.90;;;;;;5052829;28;20835;-68
2023/08/10 05:11:16;;;;;;;8.57;5.57;;;16.70;99.90;;;;;;5052945;28;20465;-68
2023/08/10 05:13:43;;;;;;;7.30;4.87;;;16.60;99.90;;;;;;5052013;28;20441;-69
2023/08/10 05:16:11;;;;;;;6.13;3.90;;;16.70;99.90;;;;;;5052727;28;20829;-68
2023/08/10 05:18:38;;;;;;;6.80;5.60;;;16.80;99.90;;;;;;5052452;28;20436;-68
2023/08/10 05:21:05;;;;;;;5.50;4.90;;;16.80;99.90;;;;;;5052427;28;20433;-68
2023/08/10 05:23:32;;;;;;;6.43;4.40;;;16.80;99.90;;;;;;5052044;28;20447;-67
2023/08/10 05:26:00;;;;;;;6.00;4.60;;;16.90;99.90;;;;;;5050336;28;20476;-68
2023/08/10 05:28:28;;;;;;;6.10;4.50;;;17.00;99.90;;;;;;5052394;28;20527;-68
2023/08/10 05:30:56;;;;;;;6.03;4.43;;;17.00;99.90;;;;;;5054580;28;20912;-68
2023/08/10 05:33:24;;;;;;;6.20;4.47;;;17.10;99.90;;;;;;5055176;28;20428;-68
2023/08/10 05:35:52;;;;;;;6.27;4.40;;;17.10;99.90;;;;;;5055473;28;20437;-68
2023/08/10 05:38:19;;;;;;;5.73;4.63;;;17.20;99.90;;;;;;5055646;28;20456;-70
2023/08/10 05:40:46;;;;;;;7.67;4.67;;;17.20;99.90;;;;;;5055966;28;20440;-68
2023/08/10 05:43:14;;;;;;;5.10;3.70;;;17.30;99.90;;;;;;5055423;28;20445;-68
2023/08/10 05:45:43;;;;;;;7.00;4.10;;;17.30;99.90;;;;;;5055519;28;20473;-68
2023/08/10 05:48:14;;;;;;;8.33;5.73;;;17.30;99.90;;;;;;5054900;28;20429;-68
2023/08/10 05:50:42;;;;;;;6.03;4.87;;;17.40;99.90;;;;;;5055253;28;20434;-68
2023/08/10 05:53:09;;;;;;;7.23;4.90;;;17.50;99.90;;;;;;5055389;28;20436;-68
2023/08/10 05:55:36;;;;;;;4.93;3.93;;;17.50;99.90;;;;;;5055236;28;20438;-69
2023/08/10 05:58:09;;;;;;;5.60;4.10;;;17.60;99.90;;;;;;5055079;28;20429;-68
2023/08/10 06:00:37;;;;;;;5.83;4.57;;;17.60;99.90;;;;;;5055331;28;20496;-70
2023/08/10 06:03:07;;;;;;;5.20;4.20;;;17.70;99.90;;;;;;5054080;28;20432;-69
2023/08/10 06:05:35;;;;;;;5.27;4.10;;;17.80;99.90;;;;;;5055163;28;20481;-68
2023/08/10 06:08:02;;;;;;;5.30;4.57;;;17.80;99.90;;;;;;5053959;28;20864;-67
2023/08/10 06:10:29;;;;;;;4.90;4.03;;;17.80;99.90;;;;;;5051448;28;20456;-69
2023/08/10 06:12:58;;;;;;;6.97;4.20;;;17.90;99.90;;;;;;5053693;28;20453;-69
2023/08/10 06:15:25;;;;;;;5.77;4.63;;;18.00;99.90;;;;;;5054522;28;20433;-68
2023/08/10 06:17:53;;;;;;;6.43;4.33;;;18.00;99.90;;;;;;5054213;28;20442;-68
2023/08/10 06:20:22;;;;;;;8.83;4.40;;;18.10;99.90;;;;;;5054105;28;20925;-68
2023/08/10 06:22:50;;;;;;;4.37;3.97;;;18.20;99.90;;;;;;5053993;28;20529;-68
2023/08/10 06:25:19;;;;;;;4.80;3.73;;;18.30;99.90;;;;;;5053249;28;20445;-68
2023/08/10 06:27:48;;;;;;;4.30;3.90;;;18.30;99.90;;;;;;5053878;28;20427;-69
2023/08/10 06:30:15;;;;;;;4.50;3.50;;;18.40;99.90;;;;;;5052782;28;20882;-68
2023/08/10 06:32:43;;;;;;;6.30;4.40;;;18.50;99.90;;;;;;5054248;28;20438;-68
2023/08/10 06:35:10;;;;;;;5.90;3.30;;;18.50;99.90;;;;;;5054684;28;20528;-69
2023/08/10 06:37:39;;;;;;;5.63;3.67;;;18.60;99.90;;;;;;5054203;28;20429;-69
2023/08/10 06:40:10;;;;;;;5.10;3.60;;;18.70;99.90;;;;;;5053392;28;20438;-69
2023/08/10 06:42:37;;;;;;;4.93;3.60;;;18.70;99.90;;;;;;5053270;28;20445;-68
2023/08/10 06:45:04;;;;;;;5.43;3.20;;;18.80;99.90;;;;;;5055126;28;20529;-68
2023/08/10 06:47:31;;;;;;;4.73;3.87;;;18.90;99.90;;;;;;5054969;28;20466;-68
2023/08/10 06:49:58;;;;;;;4.20;3.30;;;19.00;99.90;;;;;;5054721;28;20529;-68
2023/08/10 06:52:25;;;;;;;4.10;3.20;;;19.10;99.90;;;;;;5055000;28;20437;-68
2023/08/10 06:54:54;;;;;;;4.23;3.17;;;19.10;99.90;;;;;;5054535;28;20522;-68
2023/08/10 06:57:21;;;;;;;3.87;2.73;;;19.20;99.70;;;;;;5055217;28;20481;-68
2023/08/10 06:59:48;;;;;;;7.30;3.97;;;19.20;99.30;;;;;;5054885;28;20467;-68
2023/08/10 07:02:16;;;;;;;6.00;3.50;;;19.30;98.60;;;;;;5054904;28;20513;-68
2023/08/10 07:04:45;;;;;;;5.23;2.90;;;19.20;97.90;;;;;;5054477;28;20938;-68
2023/08/10 07:07:14;;;;;;;4.10;2.57;;;19.30;97.90;;;;;;5054270;28;20562;-68
2023/08/10 07:09:41;;;;;;;4.57;2.73;;;19.30;97.50;;;;;;5054765;28;20434;-70
2023/08/10 07:12:09;;;;;;;5.10;3.23;;;19.30;97.40;;;;;;5052409;28;20445;-70
2023/08/10 07:14:36;;;;;;;4.00;2.80;;;19.40;97.90;;;;;;5054103;28;20434;-68
2023/08/10 07:17:03;;;;;;;3.60;2.40;;;19.50;98.10;;;;;;5054519;28;20887;-68
2023/08/10 07:19:30;;;;;;;3.90;2.93;;;19.50;97.40;;;;;;5054406;28;20466;-68
2023/08/10 07:21:57;;;;;;;3.90;2.50;;;19.60;97.10;;;;;;5054470;28;20478;-68
2023/08/10 07:24:25;;;;;;;4.83;3.37;;;19.60;97.10;;;;;;5053927;28;20527;-68
2023/08/10 07:26:53;;;;;;;5.13;3.00;;;19.70;96.90;;;;;;5054191;28;20471;-68
2023/08/10 07:29:21;;;;;;;5.17;3.20;;;19.80;96.70;;;;;;5054230;28;20789;-68
2023/08/10 07:31:48;;;;;;;4.63;3.27;;;19.80;96.40;;;;;;5053931;28;20447;-68
2023/08/10 07:34:15;;;;;;;4.77;3.00;;;19.80;96.10;;;;;;5054227;28;20852;-68
2023/08/10 07:36:42;;;;;;;3.73;2.43;;;19.90;96.00;;;;;;5054096;28;20549;-68
2023/08/10 07:39:09;;;;;;;2.83;1.70;;;19.90;95.20;;;;;;5054008;28;20511;-68
2023/08/10 07:41:35;;;;;;;3.73;2.53;;;20.00;95.70;;;;;;5053719;28;20482;-68
2023/08/10 07:44:03;;;;;;;3.80;2.57;;;20.20;95.00;;;;;;5054212;28;20519;-68
2023/08/10 07:46:32;;;;;;;3.50;2.27;;;20.20;94.30;;;;;;5053898;28;20475;-68
2023/08/10 07:48:59;;;;;;;3.67;2.30;;;20.30;93.40;;;;;;5053951;28;20432;-68
2023/08/10 07:51:26;;;;;;;2.90;2.00;;;20.40;93.70;;;;;;5053607;28;20467;-68
2023/08/10 07:53:53;;;;;;;3.10;2.27;;;20.50;94.10;;;;;;5052491;28;20516;-68
2023/08/10 07:56:20;;;;;;;4.03;2.47;;;20.60;94.20;;;;;;5053087;28;20522;-74
2023/08/10 07:58:47;;;;;;;3.60;2.50;;;20.60;93.60;;;;;;5053754;28;20964;-68
2023/08/10 08:01:15;;;;;;;3.43;2.00;;;20.70;93.70;;;;;;5053731;28;20852;-68
2023/08/10 08:03:43;;;;;;;3.80;2.10;;;20.80;93.30;;;;;;5053416;28;20918;-68
2023/08/10 08:06:10;;;;;;;5.23;2.50;;;20.80;92.50;;;;;;5053258;28;20566;-68
2023/08/10 08:08:37;;;;;;;3.43;2.17;;;20.90;92.50;;;;;;5053808;28;20436;-68
2023/08/10 08:11:04;;;;;;;3.83;2.50;;;21.00;92.70;;;;;;5053368;28;20941;-68
2023/08/10 08:13:31;;;;;;;3.30;1.80;;;21.00;91.90;;;;;;5053762;28;20439;-68
2023/08/10 08:15:58;;;;;;;3.70;2.20;;;21.10;91.80;;;;;;5053470;28;20470;-69
2023/08/10 08:18:47;;;;;;;5.43;2.33;;;21.20;91.10;;;;;;5053165;28;20493;-68
2023/08/10 08:21:17;;;;;;;3.50;1.90;;;21.20;89.90;;;;;;5053514;28;20467;-68
2023/08/10 08:23:44;;;;;;;3.50;2.57;;;21.30;90.10;;;;;;5053276;28;20482;-68
2023/08/10 08:26:12;;;;;;;4.10;2.30;;;21.30;89.60;;;;;;5052975;28;20501;-68
2023/08/10 08:28:39;;;;;;;2.97;2.07;;;21.40;89.30;;;;;;5053069;28;20448;-68
2023/08/10 08:31:06;;;;;;;4.17;2.50;;;21.40;90.20;;;;;;5053021;28;20476;-68
2023/08/10 08:33:34;;;;;;;2.73;1.43;;;21.50;90.50;;;;;;5053257;28;20442;-68
2023/08/10 08:36:03;;;;;;;4.20;2.60;;;21.70;90.30;;;;;;5052955;28;20435;-69
2023/08/10 08:38:30;;;;;;;2.90;1.77;;;21.90;89.50;;;;;;5053298;28;20440;-68
2023/08/10 08:40:57;;;;;;;2.77;1.80;;;22.10;89.90;;;;;;5053193;28;20443;-68
2023/08/10 08:43:24;;;;;;;4.10;1.93;;;22.20;87.50;;;;;;5052970;28;20476;-68
2023/08/10 08:45:51;;;;;;;3.63;1.60;;;22.40;86.20;;;;;;5053317;28;20523;-68
2023/08/10 08:48:18;;;;;;;3.37;1.73;;;22.50;86.80;;;;;;5053168;28;20529;-68
2023/08/10 08:50:46;;;;;;;4.00;1.97;;;22.70;86.20;;;;;;5052860;28;20472;-68
2023/08/10 08:53:15;;;;;;;3.10;1.70;;;22.80;84.70;;;;;;5053079;28;20450;-68
2023/08/10 08:55:42;;;;;;;5.00;2.20;;;23.00;84.20;;;;;;5052022;28;20950;-68
2023/08/10 08:58:09;;;;;;;2.90;1.40;;;23.10;83.60;;;;;;5052761;28;20527;-68
2023/08/10 09:00:36;;;;;;;3.87;2.10;;;23.20;80.40;;;;;;5053081;28;20452;-68
2023/08/10 09:03:04;;;;;;;2.63;1.10;;;23.20;78.40;;;;;;5052712;28;20517;-68
2023/08/10 09:05:31;;;;;;;2.73;1.50;;;23.20;77.90;;;;;;5055727;28;20465;-68
2023/08/10 09:07:58;;;;;;;3.90;2.13;;;23.20;75.60;;;;;;5056901;28;20482;-68
2023/08/10 09:10:27;;;;;;;3.30;1.73;;;23.10;76.20;;;;;;5056544;28;20997;-68
2023/08/10 09:12:54;;;;;;;10.53;2.70;;;23.00;76.60;;;;;;5056526;28;20908;-68
2023/08/10 09:15:21;;;;;;;3.53;2.10;;;23.00;76.30;;;;;;5056919;28;20516;-68
2023/08/10 09:17:51;;;;;;;2.90;1.50;;;23.00;75.80;;;;;;5056790;28;20472;-68
2023/08/10 09:20:22;;;;;;;3.80;2.00;;;23.00;76.60;;;;;;5056513;28;20902;-68
2023/08/10 09:22:53;;;;;;;3.10;1.83;;;23.10;74.20;;;;;;5056779;28;20752;-68
2023/08/10 09:25:20;;;;;;;3.37;1.83;;;23.10;74.10;;;;;;5056795;28;20777;-68
2023/08/10 09:27:50;;;;;;;3.10;1.60;;;23.10;74.60;;;;;;5056899;28;20591;-68
2023/08/10 09:30:18;;;;;;;4.10;2.10;;;23.10;73.40;;;;;;5056978;28;20465;-69
2023/08/10 09:32:46;;;;;;;3.20;1.83;;;23.20;73.70;;;;;;5056201;28;20508;-68
2023/08/10 09:35:14;;;;;;;3.27;1.43;;;23.30;72.50;;;;;;5056500;28;20436;-68
2023/08/10 09:37:41;;;;;;;4.67;1.80;;;23.30;70.40;;;;;;5056471;28;20776;-68
2023/08/10 09:40:11;;;;;;;3.00;1.60;;;23.40;69.60;;;;;;5056546;28;20471;-68
2023/08/10 09:42:39;;;;;;;4.03;1.87;;;23.40;69.20;;;;;;5056468;28;20433;-68
2023/08/10 09:45:10;;;;;;;2.83;1.50;;;23.60;69.20;;;;;;5055777;28;20433;-69
2023/08/10 09:47:38;;;;;;;3.00;2.10;;;23.70;71.30;;;;;;5056222;28;20544;-68
2023/08/10 09:50:08;;;;;;;3.80;1.60;;;23.90;69.90;;;;;;5055953;28;20528;-68
2023/08/10 09:52:37;;;;;;;3.13;1.70;;;24.00;68.70;;;;;;5055937;28;20861;-69
2023/08/10 09:55:05;;;;;;;3.27;1.73;;;24.10;67.70;;;;;;5056183;28;20857;-69
2023/08/10 09:57:32;;;;;;;3.13;1.83;;;24.20;67.70;;;;;;5055833;28;20480;-68
2023/08/10 09:59:59;;;;;;;2.40;1.30;;;24.30;66.00;;;;;;5055690;28;20483;-68
2023/08/10 10:02:28;;;;;;;2.87;1.57;;;24.50;66.80;;;;;;5053982;28;20520;-68
2023/08/10 10:04:55;;;;;;;2.93;1.70;;;24.60;65.70;;;;;;5055665;28;20986;-68
2023/08/10 10:07:25;;;;;;;3.60;1.40;;;24.80;67.00;;;;;;5055779;28;20505;-69
2023/08/10 10:09:52;;;;;;;3.00;1.57;;;25.00;68.40;;;;;;5055906;28;20491;-69
2023/08/10 10:12:19;;;;;;;3.00;1.60;;;25.20;68.80;;;;;;5055550;28;20830;-69
2023/08/10 10:14:48;;;;;;;3.20;1.47;;;25.30;68.40;;;;;;5055761;28;20441;-68
2023/08/10 10:17:16;;;;;;;3.23;1.60;;;25.40;64.30;;;;;;5054699;28;20854;-68
2023/08/10 10:19:45;;;;;;;3.70;1.50;;;25.50;65.60;;;;;;5055336;28;20472;-68
2023/08/10 10:22:13;;;;;;;4.70;1.63;;;25.50;64.10;;;;;;5055947;28;20458;-68
2023/08/10 10:24:41;;;;;;;3.43;1.70;;;25.60;61.80;;;;;;5055156;28;20484;-69
2023/08/10 10:27:09;;;;;;;3.50;1.90;;;25.70;62.80;;;;;;5055130;28;20967;-69
2023/08/10 10:29:41;;;;;;;4.20;1.93;;;25.80;63.30;;;;;;5055072;28;20433;-68
2023/08/10 10:32:14;;;;;;;3.27;1.63;;;25.90;60.00;;;;;;5055508;28;20842;-68
2023/08/10 10:34:41;;;;;;;2.90;1.83;;;26.10;58.60;;;;;;5055366;28;20483;-68
2023/08/10 10:37:14;;;;;;;3.33;1.60;;;26.20;58.70;;;;;;5055430;28;20842;-68
2023/08/10 10:39:42;;;;;;;3.00;1.77;;;26.30;58.80;;;;;;5055336;28;20935;-68
2023/08/10 10:42:11;;;;;;;4.40;1.90;;;26.40;58.70;;;;;;5054919;28;20436;-68
2023/08/10 10:45:03;;;;;;;3.00;1.63;;;26.60;59.00;;;;;;5055286;28;20433;-68
2023/08/10 10:47:35;;;;;;;4.50;2.27;;;26.90;58.30;;;;;;5055079;28;20568;-68
2023/08/10 10:50:15;;;;;;;3.10;2.00;;;27.00;57.60;;;;;;5055095;28;20473;-69
2023/08/10 10:52:54;;;;;;;3.90;1.50;;;27.20;56.30;;;;;;5054717;28;20888;-68
2023/08/10 10:55:21;;;;;;;2.80;1.50;;;27.30;55.10;;;;;;5055010;28;20429;-68
2023/08/10 10:57:50;;;;;;;4.83;1.87;;;27.40;52.20;;;;;;5054601;28;20533;-69
2023/08/10 11:00:18;;;;;;;2.93;1.53;;;27.50;51.90;;;;;;5054680;28;20436;-69
2023/08/10 11:02:46;;;;;;;4.90;2.10;;;27.50;52.20;;;;;;5054997;28;20457;-68
2023/08/10 11:05:15;;;;;;;2.73;1.50;;;27.60;52.10;;;;;;5054680;28;20476;-68
2023/08/10 11:07:44;;;;;;;4.53;2.10;;;27.60;51.10;;;;;;5054857;28;20476;-69
2023/08/10 11:10:12;;;;;;;3.73;1.60;;;27.60;53.10;;;;;;5054794;28;20559;-68
2023/08/10 11:12:40;;;;;;;2.77;1.43;;;27.60;51.70;;;;;;5053463;28;20434;-69
2023/08/10 11:15:09;;;;;;;3.50;2.20;;;27.60;52.80;;;;;;5053830;28;20449;-69
2023/08/10 11:17:36;;;;;;;3.47;2.10;;;27.70;51.70;;;;;;5054079;28;20804;-68
2023/08/10 11:20:10;;;;;;;3.00;1.83;;;27.70;50.30;;;;;;5054134;28;20525;-68
2023/08/10 11:22:39;;;;;;;3.33;1.73;;;27.70;50.10;;;;;;5053889;28;20437;-70
2023/08/10 11:25:12;;;;;;;2.67;1.57;;;27.70;50.30;;;;;;5054105;28;20441;-69
2023/08/10 11:27:41;;;;;;;3.47;1.67;;;27.70;49.80;;;;;;5054494;28;20554;-68
2023/08/10 11:30:10;;;;;;;4.90;1.80;;;27.70;49.80;;;;;;5053539;28;20465;-69
2023/08/10 11:32:41;;;;;;;4.00;2.13;;;27.70;49.50;;;;;;5053418;28;20479;-68
2023/08/10 11:35:09;;;;;;;5.30;1.63;;;27.70;49.90;;;;;;5054391;28;20434;-68
2023/08/10 11:37:37;;;;;;;3.20;1.80;;;27.70;50.70;;;;;;5054045;28;20483;-69
2023/08/10 11:40:12;;;;;;;4.00;2.20;;;27.70;51.80;;;;;;5054208;28;20450;-69
2023/08/10 11:42:40;;;;;;;3.40;2.10;;;27.80;51.60;;;;;;5053966;28;20449;-68
2023/08/10 11:45:09;;;;;;;3.90;2.40;;;27.80;51.10;;;;;;5054286;28;20438;-69
2023/08/10 11:47:41;;;;;;;3.73;2.10;;;27.80;48.50;;;;;;5054125;28;20825;-69
2023/08/10 11:50:10;;;;;;;3.20;2.00;;;27.70;47.70;;;;;;5054246;28;20449;-68
2023/08/10 11:52:38;;;;;;;3.20;1.97;;;27.70;48.90;;;;;;5053910;28;20437;-68
2023/08/10 11:55:12;;;;;;;2.90;1.60;;;27.60;49.70;;;;;;5054122;28;20430;-68
2023/08/10 11:57:41;;;;;;;4.57;1.80;;;27.70;50.50;;;;;;5054168;28;20421;-68
2023/08/10 12:00:22;;;;;;;2.83;1.80;;;27.70;48.70;;;;;;5054288;28;20488;-68
2023/08/10 12:03:06;;;;;;;3.17;2.10;;;27.70;50.90;;;;;;5053981;28;20424;-68
2023/08/10 12:05:41;;;;;;;4.43;1.80;;;27.70;50.60;;;;;;5054234;28;20433;-68
2023/08/10 12:08:10;;;;;;;3.13;1.80;;;27.80;49.70;;;;;;5053900;28;20504;-68
2023/08/10 12:10:40;;;;;;;2.73;1.60;;;27.80;49.10;;;;;;5053585;28;20536;-69
2023/08/10 12:13:08;;;;;;;4.73;1.83;;;27.80;49.10;;;;;;5053778;28;20429;-68
2023/08/10 12:15:37;;;;;;;3.27;1.77;;;27.90;50.30;;;;;;5053446;28;20430;-69
2023/08/10 12:18:05;;;;;;;3.60;2.00;;;28.00;50.70;;;;;;5053435;28;20950;-69
2023/08/10 12:20:32;;;;;;;3.67;2.20;;;28.00;49.80;;;;;;5053745;28;20824;-68
2023/08/10 12:22:59;;;;;;;4.27;2.30;;;28.10;48.10;;;;;;5053799;28;20864;-68
2023/08/10 12:25:26;;;;;;;3.50;2.07;;;28.10;48.50;;;;;;5053561;28;20509;-68
2023/08/10 12:27:54;;;;;;;3.13;1.77;;;28.00;47.90;;;;;;5053582;28;20522;-68
2023/08/10 12:30:21;;;;;;;3.10;1.83;;;28.00;47.50;;;;;;5053641;28;20862;-68
2023/08/10 12:32:48;;;;;;;2.90;1.80;;;27.80;45.80;;;;;;5053326;28;20422;-68
2023/08/10 12:35:16;;;;;;;3.00;1.87;;;27.60;46.00;;;;;;5053538;28;20533;-68
2023/08/10 12:37:43;;;;;;;4.07;1.80;;;27.30;46.30;;;;;;5053455;28;20441;-70
2023/08/10 12:40:12;;;;;;;3.93;2.00;;;27.20;47.30;;;;;;5058101;28;20837;-68
2023/08/10 12:42:40;;;;;;;2.93;1.70;;;27.20;48.10;;;;;;5060399;28;20433;-68
2023/08/10 12:45:10;;;;;;;3.77;1.77;;;27.20;49.30;;;;;;5060339;28;20429;-68
2023/08/10 12:47:38;;;;;;;2.93;1.77;;;27.20;49.60;;;;;;5059966;28;20556;-69
2023/08/10 12:50:05;;;;;;;2.97;1.67;;;27.20;49.40;;;;;;5059861;28;20441;-68
2023/08/10 12:52:32;;;;;;;7.37;3.43;;;27.20;49.70;;;;;;5059738;28;20477;-68
2023/08/10 12:55:01;;;;;;;2.50;1.40;;;27.20;49.10;;;;;;5059714;28;21010;-68